LFYS weather

Ste LĂ©ocadie Airfield
Languedoc-Roussillon, France

Public forecast

Using degrees Celsius for public forecast. Weather courtesy of forecast.io.

METAR (pilot weather report)

Report is more than 6 hours old.

Closest report is Pirineus - la Seu d'Urgel Airport, 27.5 nm (50.9 km) WSW. Retrieved 2019/09/21 17:00 UTC (16 hours ago):

LESU 211700Z 23006KT 210V270 9999 FEW050 22/13 Q1014

TAF (pilot weather forecast)

Closest forecast is Pirineus - la Seu d'Urgel Airport, 27.5 nm (50.9 km) WSW. Retrieved 2019/09/22 09:00 UTC (0 seconds ago):

TAF LESU 220800Z 2209/2309 VRB04KT 9999 SCT040 TX25/2213Z TN07/2305Z TEMPO 2212/2219 22010KT TEMPO 2209/2216 SHRA FEW030CB